createdAt,value
2022-09-13T00:01:29.960Z,76.69
2022-09-13T00:03:57.069Z,76.61
2022-09-13T00:06:24.176Z,76.71
2022-09-13T00:08:52.358Z,75.96
2022-09-13T00:11:25.030Z,76.15
2022-09-13T00:13:53.129Z,76.38
2022-09-13T00:16:22.115Z,76.78
2022-09-13T00:18:49.455Z,76.11
2022-09-13T00:21:19.175Z,75.67
2022-09-13T00:23:48.177Z,77.23
2022-09-13T00:26:18.206Z,77.19
2022-09-13T00:28:45.848Z,76.89
2022-09-13T00:31:13.039Z,77.32
2022-09-13T00:33:40.153Z,77.27
2022-09-13T00:36:09.851Z,77.44
2022-09-13T00:38:40.261Z,77.62
2022-09-13T00:41:11.154Z,77.22
2022-09-13T00:44:07.287Z,77.45
2022-09-13T00:46:46.741Z,77.41
2022-09-13T00:49:23.244Z,77.61
2022-09-13T00:51:58.075Z,77.79
2022-09-13T00:54:28.203Z,77.00
2022-09-13T00:56:57.736Z,77.30
2022-09-13T00:59:34.606Z,77.78
2022-09-13T01:02:03.941Z,77.06
2022-09-13T01:04:32.912Z,77.03
2022-09-13T01:07:04.437Z,77.60
2022-09-13T01:09:33.190Z,77.12
2022-09-13T01:12:25.640Z,78.34
2022-09-13T01:14:52.770Z,77.97
2022-09-13T01:17:19.884Z,78.00
2022-09-13T01:19:47.538Z,78.29
2022-09-13T01:22:33.252Z,77.63
2022-09-13T01:25:39.460Z,78.83
2022-09-13T01:28:12.498Z,78.52
2022-09-13T01:30:51.883Z,78.07
2022-09-13T01:33:46.604Z,78.74
2022-09-13T01:36:45.187Z,79.00
2022-09-13T01:39:18.158Z,79.60
2022-09-13T01:41:54.323Z,79.44
2022-09-13T01:44:44.420Z,80.08
2022-09-13T01:47:20.765Z,79.50
2022-09-13T01:49:57.114Z,79.44
2022-09-13T01:52:43.303Z,78.53
2022-09-13T01:55:20.671Z,79.56
2022-09-13T01:58:05.705Z,79.94
2022-09-13T02:00:38.244Z,79.45
2022-09-13T02:03:07.708Z,80.76
2022-09-13T02:05:42.373Z,80.15
2022-09-13T02:08:38.409Z,80.59
2022-09-13T02:11:12.863Z,79.97
2022-09-13T02:14:04.081Z,79.34
2022-09-13T02:16:34.700Z,80.71
2022-09-13T02:19:33.624Z,81.03
2022-09-13T02:22:03.924Z,81.39
2022-09-13T02:24:34.309Z,80.75
2022-09-13T02:27:08.703Z,80.49
2022-09-13T02:29:39.072Z,80.64
2022-09-13T02:32:07.857Z,80.88
2022-09-13T02:34:40.390Z,80.85
2022-09-13T02:37:09.421Z,81.28
2022-09-13T02:39:38.939Z,81.28
2022-09-13T02:42:20.346Z,81.03
2022-09-13T02:44:52.624Z,80.84
2022-09-13T02:47:41.228Z,80.42
2022-09-13T02:50:22.775Z,80.97
2022-09-13T02:52:56.466Z,79.72
2022-09-13T02:55:27.221Z,81.08
2022-09-13T02:58:11.243Z,80.46
2022-09-13T03:00:39.185Z,80.75
2022-09-13T03:03:10.749Z,80.28
2022-09-13T03:05:38.865Z,81.42
2022-09-13T03:08:07.992Z,81.24
2022-09-13T03:10:48.673Z,81.01
2022-09-13T03:13:16.269Z,80.05
2022-09-13T03:15:47.111Z,81.55
2022-09-13T03:18:17.473Z,81.15
2022-09-13T03:21:22.157Z,81.48
2022-09-13T03:24:29.373Z,81.76
2022-09-13T03:27:32.239Z,81.48
2022-09-13T03:30:05.356Z,81.87
2022-09-13T03:32:43.755Z,81.90
2022-09-13T03:35:40.637Z,82.12
2022-09-13T03:38:18.798Z,82.14
2022-09-13T03:41:02.607Z,81.25
2022-09-13T03:43:45.203Z,82.65
2022-09-13T03:46:16.519Z,81.26
2022-09-13T03:48:44.836Z,81.66
2022-09-13T03:51:13.277Z,81.76
2022-09-13T03:53:48.678Z,82.28
2022-09-13T03:56:19.180Z,82.18
2022-09-13T03:58:48.275Z,82.51
2022-09-13T04:01:23.563Z,82.21
2022-09-13T04:03:55.856Z,82.78
2022-09-13T04:06:24.320Z,82.30
2022-09-13T04:08:52.167Z,81.74
2022-09-13T04:12:23.126Z,82.17
2022-09-13T04:14:50.862Z,82.19
2022-09-13T04:17:18.924Z,82.84
2022-09-13T04:23:41.887Z,84.40
2022-09-13T04:26:13.413Z,82.89
2022-09-13T04:28:41.744Z,83.55
2022-09-13T04:31:09.363Z,83.72
2022-09-13T04:33:37.531Z,82.80
2022-09-13T04:36:05.129Z,82.10
2022-09-13T04:38:32.631Z,81.78
2022-09-13T04:41:00.236Z,83.53
2022-09-13T04:43:27.692Z,84.26
2022-09-13T04:45:55.484Z,83.81
2022-09-13T04:48:23.133Z,83.88
2022-09-13T04:51:06.223Z,84.61
2022-09-13T04:53:34.446Z,84.11
2022-09-13T04:56:02.860Z,83.59
2022-09-13T04:58:30.337Z,84.22
2022-09-13T05:01:04.962Z,84.28
2022-09-13T05:03:35.016Z,84.01
2022-09-13T05:06:15.344Z,84.84
2022-09-13T05:08:42.966Z,83.89
2022-09-13T05:11:10.775Z,84.44
2022-09-13T05:13:38.615Z,85.16
2022-09-13T05:16:07.117Z,85.95
2022-09-13T05:18:36.465Z,85.09
2022-09-13T05:21:05.378Z,85.75
2022-09-13T05:23:32.742Z,84.55
2022-09-13T05:26:05.150Z,85.35
2022-09-13T05:28:38.740Z,84.49
2022-09-13T05:31:09.661Z,84.81
2022-09-13T05:37:21.820Z,85.54
2022-09-13T05:40:10.299Z,85.42
2022-09-13T05:42:38.630Z,85.60
2022-09-13T05:45:07.546Z,86.42
2022-09-13T05:47:35.530Z,85.44
2022-09-13T05:50:15.423Z,86.48
2022-09-13T05:52:54.848Z,86.91
2022-09-13T05:55:23.747Z,85.58
2022-09-13T05:57:53.543Z,86.05
2022-09-13T06:00:21.232Z,85.99
2022-09-13T06:02:49.599Z,86.96
2022-09-13T06:05:17.875Z,87.80
2022-09-13T06:07:46.925Z,88.52
2022-09-13T06:10:14.630Z,91.15
2022-09-13T06:12:42.595Z,91.02
2022-09-13T06:15:11.678Z,92.08
2022-09-13T06:17:39.473Z,93.58
2022-09-13T06:20:11.276Z,95.19
2022-09-13T06:22:40.437Z,95.98
2022-09-13T06:25:09.721Z,96.36
2022-09-13T06:27:37.318Z,96.26
2022-09-13T06:30:05.764Z,96.63
2022-09-13T06:32:33.481Z,96.49
2022-09-13T06:35:01.317Z,97.84
2022-09-13T06:37:28.917Z,99.02
2022-09-13T06:39:56.568Z,98.68
2022-09-13T06:42:24.003Z,98.07
2022-09-13T06:44:51.371Z,99.02
2022-09-13T06:47:18.838Z,99.49
2022-09-13T06:49:46.801Z,99.92
2022-09-13T06:52:17.527Z,100.00
2022-09-13T06:54:45.368Z,98.52
2022-09-13T06:57:12.841Z,98.09
2022-09-13T06:59:40.332Z,98.17
2022-09-13T07:02:07.776Z,98.59
2022-09-13T07:04:35.294Z,97.48
2022-09-13T07:07:02.892Z,97.71
2022-09-13T07:13:59.291Z,98.93
2022-09-13T07:16:35.891Z,98.98
2022-09-13T07:19:05.892Z,98.71
2022-09-13T07:21:34.450Z,99.44
2022-09-13T07:24:02.172Z,97.43
2022-09-13T07:26:29.887Z,98.39
2022-09-13T07:29:00.371Z,98.62
2022-09-13T07:31:30.915Z,99.57
2022-09-13T07:34:00.849Z,99.93
2022-09-13T07:36:29.912Z,99.51
2022-09-13T07:38:58.340Z,99.81
2022-09-13T07:41:29.417Z,99.03
2022-09-13T07:43:59.293Z,100.00
2022-09-13T07:46:28.736Z,99.89
2022-09-13T07:48:57.390Z,99.39
2022-09-13T07:51:33.616Z,98.50
2022-09-13T07:54:03.017Z,99.93
2022-09-13T07:56:32.912Z,99.65
2022-09-13T07:59:02.422Z,99.26
2022-09-13T08:01:43.427Z,99.79
2022-09-13T08:04:13.825Z,99.66
2022-09-13T08:06:43.472Z,99.40
2022-09-13T08:09:14.417Z,99.78
2022-09-13T08:11:46.358Z,99.24
2022-09-13T08:14:15.982Z,99.37
2022-09-13T08:16:44.188Z,100.00
2022-09-13T08:19:17.192Z,100.00
2022-09-13T08:21:47.911Z,100.00
2022-09-13T08:24:22.341Z,100.00
2022-09-13T08:26:50.187Z,99.97
2022-09-13T08:29:18.266Z,100.00
2022-09-13T08:31:46.232Z,99.86
2022-09-13T08:34:15.427Z,100.00
2022-09-13T08:45:14.052Z,98.98
2022-09-13T08:47:48.459Z,98.40
2022-09-13T08:50:36.727Z,98.67
2022-09-13T08:53:19.534Z,98.63
2022-09-13T08:56:05.340Z,98.34
2022-09-13T08:58:51.066Z,98.84
2022-09-13T09:01:37.635Z,98.02
2022-09-13T09:04:52.841Z,96.76
2022-09-13T09:07:27.308Z,96.77
2022-09-13T09:09:58.630Z,97.17
2022-09-13T09:12:42.364Z,96.63
2022-09-13T09:15:26.587Z,94.60
2022-09-13T09:18:24.644Z,95.61
2022-09-13T09:20:53.769Z,95.43
2022-09-13T09:23:25.160Z,95.75
2022-09-13T09:25:57.138Z,94.85
2022-09-13T09:28:25.526Z,94.99
2022-09-13T09:31:05.281Z,93.51
2022-09-13T09:33:57.258Z,92.51
2022-09-13T09:36:43.327Z,93.41
2022-09-13T09:39:12.897Z,93.67
2022-09-13T09:41:40.094Z,93.28
2022-09-13T09:44:20.440Z,91.86
2022-09-13T09:46:56.473Z,91.62
2022-09-13T09:49:51.028Z,90.81
2022-09-13T09:52:22.425Z,89.89
2022-09-13T09:54:50.434Z,90.06
2022-09-13T09:57:20.588Z,89.33
2022-09-13T09:59:47.686Z,88.97
2022-09-13T10:02:20.393Z,88.27
2022-09-13T10:04:57.545Z,88.03
2022-09-13T10:07:32.745Z,86.39
2022-09-13T10:10:23.354Z,86.54
2022-09-13T10:12:52.876Z,84.54
2022-09-13T10:15:21.801Z,82.73
2022-09-13T10:18:16.936Z,82.16
2022-09-13T10:21:17.148Z,81.43
2022-09-13T10:23:45.797Z,82.02
2022-09-13T10:26:18.143Z,81.42
2022-09-13T10:29:09.112Z,81.65
2022-09-13T10:31:39.110Z,81.67
2022-09-13T10:34:13.008Z,82.12
2022-09-13T10:36:53.528Z,81.02
2022-09-13T10:39:23.152Z,81.29
2022-09-13T10:41:53.658Z,81.67
2022-09-13T10:44:24.612Z,82.04
2022-09-13T10:46:52.384Z,82.11
2022-09-13T10:49:43.028Z,82.45
2022-09-13T10:53:01.070Z,82.23
2022-09-13T10:55:37.030Z,81.44
2022-09-13T10:58:07.295Z,81.80
2022-09-13T11:00:45.582Z,82.39
2022-09-13T11:03:33.039Z,82.83
2022-09-13T11:06:27.726Z,81.81
2022-09-13T11:09:17.474Z,83.06
2022-09-13T11:11:58.852Z,83.79
2022-09-13T11:14:41.184Z,83.75
2022-09-13T11:17:23.324Z,83.08
2022-09-13T11:20:02.928Z,83.37
2022-09-13T11:22:51.821Z,83.46
2022-09-13T11:25:53.037Z,84.07
2022-09-13T11:28:37.363Z,84.25
2022-09-13T11:31:07.691Z,84.45
2022-09-13T11:33:55.468Z,84.51
2022-09-13T11:36:28.766Z,84.31
2022-09-13T11:39:02.919Z,84.85
2022-09-13T11:41:32.833Z,84.71
2022-09-13T11:44:19.387Z,84.96
2022-09-13T11:47:15.723Z,85.87
2022-09-13T11:49:55.332Z,85.94
2022-09-13T11:52:37.727Z,86.04
2022-09-13T11:55:22.700Z,86.39
2022-09-13T11:57:55.157Z,87.77
2022-09-13T12:00:30.172Z,87.94
2022-09-13T12:03:23.787Z,88.16
2022-09-13T12:05:56.917Z,88.80
2022-09-13T12:08:23.945Z,90.04
2022-09-13T12:10:56.904Z,88.22
2022-09-13T12:13:30.193Z,88.82
2022-09-13T12:16:03.772Z,90.10
2022-09-13T12:18:57.141Z,91.30
2022-09-13T12:21:27.208Z,91.15
2022-09-13T12:24:00.327Z,91.93
2022-09-13T12:26:45.197Z,92.69
2022-09-13T12:29:19.539Z,92.13
2022-09-13T12:31:46.648Z,93.05
2022-09-13T12:34:24.985Z,93.78
2022-09-13T12:37:02.121Z,95.87
2022-09-13T12:39:48.813Z,97.07
2022-09-13T12:42:47.235Z,96.77
2022-09-13T12:45:33.623Z,99.97
2022-09-13T12:48:18.092Z,100.00
2022-09-13T12:51:03.659Z,100.00
2022-09-13T12:53:56.939Z,100.00
2022-09-13T12:56:45.868Z,100.00
2022-09-13T12:59:50.700Z,100.00
2022-09-13T13:02:31.919Z,100.00
2022-09-13T13:05:03.262Z,100.00
2022-09-13T13:07:32.653Z,100.00
2022-09-13T13:10:00.146Z,100.00
2022-09-13T13:12:38.452Z,100.00
2022-09-13T13:15:15.587Z,100.00
2022-09-13T13:17:48.902Z,100.00
2022-09-13T13:21:06.988Z,100.00
2022-09-13T13:23:37.337Z,100.00
2022-09-13T13:26:11.798Z,100.00
2022-09-13T13:28:44.983Z,100.00
2022-09-13T13:31:24.014Z,100.00
2022-09-13T13:33:53.997Z,100.00
2022-09-13T13:36:42.516Z,100.00
2022-09-13T13:39:33.748Z,100.00
2022-09-13T13:42:03.093Z,100.00
2022-09-13T13:44:31.868Z,100.00
2022-09-13T13:47:07.637Z,100.00
2022-09-13T13:49:46.161Z,99.63
2022-09-13T13:52:22.273Z,97.58
2022-09-13T13:54:55.500Z,96.16
2022-09-13T13:57:28.700Z,95.00
2022-09-13T14:00:11.331Z,93.21
2022-09-13T14:02:50.209Z,90.68
2022-09-13T14:05:42.556Z,89.62
2022-09-13T14:08:15.345Z,88.82
2022-09-13T14:10:50.354Z,88.17
2022-09-13T14:13:20.420Z,89.17
2022-09-13T14:15:53.213Z,89.63
2022-09-13T14:18:26.015Z,89.50
2022-09-13T14:21:00.835Z,88.57
2022-09-13T14:23:28.099Z,88.46
2022-09-13T14:25:57.626Z,84.05
2022-09-13T14:28:25.440Z,83.41
2022-09-13T14:30:55.866Z,83.74
2022-09-13T14:33:33.501Z,83.40
2022-09-13T14:36:06.228Z,83.06
2022-09-13T14:38:35.773Z,83.61
2022-09-13T14:41:15.513Z,84.27
2022-09-13T14:43:44.100Z,84.40
2022-09-13T14:46:20.309Z,85.55
2022-09-13T14:48:57.703Z,85.63
2022-09-13T14:51:46.146Z,86.21
2022-09-13T14:54:16.240Z,87.32
2022-09-13T14:56:49.975Z,86.95
2022-09-13T14:59:26.836Z,86.90
2022-09-13T15:01:54.168Z,86.86
2022-09-13T15:04:23.796Z,86.80
2022-09-13T15:07:19.730Z,86.66
2022-09-13T15:09:46.892Z,85.58
2022-09-13T15:12:26.331Z,84.83
2022-09-13T15:15:30.882Z,85.10
2022-09-13T15:18:00.361Z,83.91
2022-09-13T15:20:29.832Z,81.78
2022-09-13T15:22:57.552Z,78.24
2022-09-13T15:25:29.415Z,74.51
2022-09-13T15:27:57.438Z,72.44
2022-09-13T15:30:24.521Z,71.46
2022-09-13T15:33:24.959Z,72.98
2022-09-13T15:35:54.533Z,71.83
2022-09-13T15:38:30.125Z,69.62
2022-09-13T15:41:03.700Z,70.62
2022-09-13T15:43:31.310Z,68.95
2022-09-13T15:45:59.493Z,68.47
2022-09-13T15:48:32.465Z,69.11
2022-09-13T15:51:13.839Z,69.67
2022-09-13T15:53:44.353Z,68.96
2022-09-13T15:56:17.523Z,69.62
2022-09-13T15:58:44.610Z,69.66
2022-09-13T16:01:13.204Z,71.03
2022-09-13T16:03:40.502Z,71.83
2022-09-13T16:06:09.224Z,71.27
2022-09-13T16:08:37.081Z,71.20
2022-09-13T16:11:05.360Z,72.02
2022-09-13T16:13:32.631Z,72.99
2022-09-13T16:16:00.678Z,74.47
2022-09-13T16:18:27.925Z,74.70
2022-09-13T16:20:55.014Z,75.72
2022-09-13T16:23:22.094Z,77.06
2022-09-13T16:25:53.929Z,77.99
2022-09-13T16:28:21.260Z,78.40
2022-09-13T16:30:48.618Z,78.76
2022-09-13T16:33:15.684Z,78.99
2022-09-13T16:35:42.769Z,79.72
2022-09-13T16:38:10.537Z,80.69
2022-09-13T16:40:42.256Z,80.69
2022-09-13T16:43:09.407Z,81.94
2022-09-13T16:45:41.056Z,81.78
2022-09-13T16:48:08.471Z,82.34
2022-09-13T16:50:38.761Z,83.50
2022-09-13T16:53:05.934Z,84.17
2022-09-13T16:55:33.165Z,85.02
2022-09-13T16:58:00.296Z,85.79
2022-09-13T17:00:28.739Z,85.80
2022-09-13T17:02:56.771Z,85.33
2022-09-13T17:05:24.549Z,86.07
2022-09-13T17:07:53.113Z,87.04
2022-09-13T17:10:20.804Z,87.73
2022-09-13T17:12:48.174Z,88.33
2022-09-13T17:15:15.295Z,88.84
2022-09-13T17:17:42.420Z,88.69
2022-09-13T17:20:12.256Z,89.11
2022-09-13T17:22:39.997Z,90.12
2022-09-13T17:25:07.955Z,90.81
2022-09-13T17:27:35.377Z,90.97
2022-09-13T17:30:04.892Z,91.61
2022-09-13T17:32:32.151Z,92.47
2022-09-13T17:34:59.345Z,92.60
2022-09-13T17:37:26.841Z,92.35
2022-09-13T17:39:54.043Z,92.65
2022-09-13T17:42:23.372Z,93.07
2022-09-13T17:44:51.014Z,92.42
2022-09-13T17:47:18.137Z,92.07
2022-09-13T17:49:46.572Z,92.29
2022-09-13T17:52:14.208Z,94.06
2022-09-13T17:54:41.373Z,94.44
2022-09-13T17:57:11.933Z,94.64
2022-09-13T17:59:39.568Z,95.11
2022-09-13T18:02:07.188Z,94.92
2022-09-13T18:04:34.286Z,95.30
2022-09-13T18:07:01.412Z,95.33
2022-09-13T18:09:28.773Z,94.78
2022-09-13T18:11:55.978Z,94.04
2022-09-13T18:14:24.333Z,94.01
2022-09-13T18:16:55.639Z,94.36
2022-09-13T18:19:44.329Z,94.49
2022-09-13T18:22:10.472Z,94.98
2022-09-13T18:24:37.591Z,95.06
2022-09-13T18:27:05.442Z,94.73
2022-09-13T18:29:32.984Z,93.66
2022-09-13T18:32:00.271Z,94.18
2022-09-13T18:34:27.959Z,94.94
2022-09-13T18:36:56.022Z,95.14
2022-09-13T18:39:23.438Z,95.60
2022-09-13T18:41:50.512Z,96.29
2022-09-13T18:44:18.080Z,96.81
2022-09-13T18:46:46.518Z,97.07
2022-09-13T18:49:14.996Z,96.66
2022-09-13T18:51:43.724Z,97.28
2022-09-13T18:54:13.172Z,97.22
2022-09-13T18:56:41.389Z,97.56
2022-09-13T18:59:12.643Z,97.96
2022-09-13T19:01:42.288Z,97.12
2022-09-13T19:04:19.097Z,98.00
2022-09-13T19:06:48.527Z,98.66
2022-09-13T19:09:16.603Z,98.74
2022-09-13T19:11:47.702Z,98.65
2022-09-13T19:14:18.451Z,99.56
2022-09-13T19:16:45.750Z,99.84
2022-09-13T19:19:12.960Z,99.18
2022-09-13T19:21:40.743Z,99.97
2022-09-13T19:24:16.282Z,100.00
2022-09-13T19:26:44.810Z,100.00
2022-09-13T19:29:13.820Z,100.00
2022-09-13T19:31:43.753Z,100.00
2022-09-13T19:34:11.144Z,100.00
2022-09-13T19:36:39.307Z,100.00
2022-09-13T19:39:07.422Z,99.85
2022-09-13T19:41:35.136Z,100.00
2022-09-13T19:44:02.747Z,100.00
2022-09-13T19:46:36.335Z,99.78
2022-09-13T19:49:04.363Z,99.76
2022-09-13T19:51:36.490Z,99.52
2022-09-13T19:54:10.988Z,99.38
2022-09-13T19:56:42.843Z,98.84
2022-09-13T19:59:13.491Z,98.87
2022-09-13T20:01:42.371Z,99.35
2022-09-13T20:04:11.685Z,99.40
2022-09-13T20:06:44.213Z,98.76
2022-09-13T20:09:13.427Z,98.53
2022-09-13T20:11:44.981Z,98.26
2022-09-13T20:14:14.433Z,98.48
2022-09-13T20:16:42.767Z,97.70
2022-09-13T20:22:09.955Z,96.37
2022-09-13T20:24:37.409Z,96.17
2022-09-13T20:27:04.800Z,95.81
2022-09-13T20:29:32.008Z,94.27
2022-09-13T20:31:59.965Z,93.20
2022-09-13T20:34:27.266Z,92.27
2022-09-13T20:36:54.385Z,91.83
2022-09-13T20:39:21.652Z,91.82
2022-09-13T20:41:49.935Z,90.84
2022-09-13T20:44:17.463Z,90.33
2022-09-13T20:46:44.654Z,89.45
2022-09-13T20:49:11.816Z,89.84
2022-09-13T20:51:41.018Z,89.92
2022-09-13T20:54:08.282Z,89.57
2022-09-13T20:56:36.186Z,89.83
2022-09-13T20:59:04.037Z,89.18
2022-09-13T21:01:32.353Z,89.02
2022-09-13T21:04:00.054Z,88.41
2022-09-13T21:06:29.555Z,88.08
2022-09-13T21:08:59.699Z,88.92
2022-09-13T21:11:34.735Z,88.95
2022-09-13T21:14:06.362Z,89.01
2022-09-13T21:16:41.320Z,88.60
2022-09-13T21:19:09.098Z,88.85
2022-09-13T21:21:38.311Z,88.76
2022-09-13T21:24:09.548Z,88.12
2022-09-13T21:26:37.882Z,88.25
2022-09-13T21:29:05.276Z,87.40
2022-09-13T21:31:34.000Z,87.30
2022-09-13T21:34:04.179Z,86.60
2022-09-13T21:36:34.564Z,87.06
2022-09-13T21:39:02.324Z,86.17
2022-09-13T21:41:29.918Z,86.95
2022-09-13T21:43:57.237Z,86.81
2022-09-13T21:46:29.195Z,86.82
2022-09-13T21:48:59.668Z,86.70
2022-09-13T21:51:28.851Z,86.52
2022-09-13T21:53:58.918Z,86.11
2022-09-13T21:56:28.631Z,86.47
2022-09-13T21:59:00.805Z,86.27
2022-09-13T22:01:33.869Z,86.03
2022-09-13T22:04:01.775Z,86.19
2022-09-13T22:06:33.539Z,85.93
2022-09-13T22:09:04.305Z,85.57
2022-09-13T22:11:34.856Z,85.12
2022-09-13T22:14:02.545Z,85.62
2022-09-13T22:16:35.011Z,84.47
2022-09-13T22:19:13.030Z,84.41
2022-09-13T22:21:42.696Z,85.22
2022-09-13T22:24:13.928Z,85.23
2022-09-13T22:26:41.088Z,84.88
2022-09-13T22:29:09.688Z,83.70
2022-09-13T22:31:39.401Z,84.00
2022-09-13T22:34:07.558Z,83.70
2022-09-13T22:36:34.657Z,84.03
2022-09-13T22:39:01.805Z,84.27
2022-09-13T22:41:31.357Z,84.64
2022-09-13T22:43:59.597Z,84.54
2022-09-13T22:46:30.824Z,84.51
2022-09-13T22:48:57.989Z,84.43
2022-09-13T22:51:26.267Z,84.61
2022-09-13T22:53:54.040Z,83.77
2022-09-13T22:56:23.927Z,83.00
2022-09-13T22:58:55.986Z,82.44
2022-09-13T23:01:24.240Z,82.22
2022-09-13T23:03:51.898Z,81.76
2022-09-13T23:06:22.550Z,82.39
2022-09-13T23:08:51.391Z,83.48
2022-09-13T23:11:24.175Z,82.95
2022-09-13T23:13:52.838Z,82.26
2022-09-13T23:16:28.352Z,82.60
2022-09-13T23:18:55.717Z,82.70
2022-09-13T23:21:25.841Z,82.85
2022-09-13T23:23:54.080Z,83.00
2022-09-13T23:26:23.300Z,82.81
2022-09-13T23:28:59.690Z,82.03
2022-09-13T23:31:32.552Z,82.03
2022-09-13T23:34:01.909Z,82.24
2022-09-13T23:36:31.477Z,83.01
2022-09-13T23:38:59.175Z,82.77
2022-09-13T23:41:26.303Z,82.92
2022-09-13T23:43:53.882Z,82.60
2022-09-13T23:46:21.607Z,83.02
2022-09-13T23:48:49.000Z,82.67
2022-09-13T23:51:22.993Z,82.07
2022-09-13T23:53:52.008Z,82.56
2022-09-13T23:56:19.564Z,82.83
2022-09-13T23:58:46.732Z,82.67
